Accueil
METAR-TAF:

METAR-TAF

Aéroports :

Aéroport international de l'île Norfolk

Île Norfolk, Australie

latitude: 29-02S, longitude: 167-56E, altitude: 113 m

Observation

Le bulletin a été fait il y a 27 minutes, à 10:30 UTC
Vent 4 kt de est, variant entre nord-est et est/sud-est
Température 14°C
Humidité 82%
Pression 1018 hPa
Visibilité 10 km ou plus
Nuages épars à une hauteur de 7700 ft

METAR: YSNF 221030Z AUTO 08004KT 050V110 9999 // SCT077 14/11 Q1018

Heure: 20:57 (10:57 UTC)

Prévision

Le bulletin a été fait il y a 5 heures et 35 minutes, à 05:22 UTC
Prévision valable du 22 à 06 UTC au 23 à 06 UTC
Vent 10 kt de sud
Visibilité 10 km ou plus
Nuages épars à une hauteur de 2000 ft
Nuages fragmentés à une hauteur de 3000 ft
faibles averses de pluie

TAF: YSNF 220522Z 2206/2306 17010KT 9999 -SHRA SCT020 BKN030

Observations et prévisions météorologiques de plus de 4000 aéroports (messages METAR et TAF).

Les stations disponibles sont représentées par des disques jaunes et rouges sur la carte.

Passer la souris dessus pour voir le nom de la station.

Cliquer dessus pour voir les observations et prévisions météorologiques.

Pour changer de carte: cliquez sur les boutons verts avec une croix noire pour zoomer, sur le bouton vert avec un tiret pour effectuer un zoom arrière, ou sur les flèches vertes pour les cartes adjacentes.


METAR-TAF: